Marlin V — 3EYO3 — position and weather

sailwx.info

Track history (hours):
 
Tides and Currents Weather Stations Pressure Air Temp Water Temp Dewpoint Dewpoint Depression Visibility Wind Speed Wind Dir Waves Ship Positions

Marlin V

Last reported at 2018-May-03 21:53 UTC. Time now 2018-May-21 09:12 UTC.
Position N 35°02' E 129°08'.
Warning: this ship's position is 17 days out of date.

Length 199 m; draft 13 m.

Type: Cargo ship. MMSI: 357658000.

Date/timePositionNaut miles runAvg speedWind from/ knotsBaromVisibWave heightAir tempDewpointWater temp
2018-May-03 21:53N 35°02' E 129°08'3 8.2
2018-May-03 21:30N 35°05' E 129°06'2 3.3
2018-May-03 20:58N 35°06' E 129°04'0 0.0
2018-May-03 20:28N 35°06' E 129°04'0 0.0
2018-May-03 19:58N 35°06' E 129°04'0 0.0
2018-May-03 19:28N 35°06' E 129°04'0 0.0
2018-May-03 18:58N 35°06' E 129°04'0 0.0
2018-May-03 18:28N 35°06' E 129°04'0 0.0
2018-May-03 17:58N 35°06' E 129°04'0 0.0
2018-May-03 17:28N 35°06' E 129°04'0 0.0
2018-May-03 16:58N 35°06' E 129°04'0 0.0
2018-May-03 16:28N 35°06' E 129°04'0 0.0
2018-May-03 15:58N 35°06' E 129°04'0 0.0
2018-May-03 15:28N 35°06' E 129°04'0 0.0
2018-May-03 14:58N 35°06' E 129°04'0 0.0
2018-May-03 14:28N 35°06' E 129°04'0 0.0
2018-May-03 13:58N 35°06' E 129°04'0 0.0
2018-May-03 13:28N 35°06' E 129°04'0 0.0
2018-May-03 12:58N 35°06' E 129°04'0 0.0
2018-May-03 12:22N 35°06' E 129°04'0 0.0
2018-May-03 11:52N 35°06' E 129°04'0 0.0
2018-May-03 11:28N 35°06' E 129°04'0 0.1
2018-May-03 11:00N 35°06' E 129°04'2 3.4
2018-May-03 10:30N 35°05' E 129°06'4 9.0
2018-May-03 10:00N 35°05' E 129°12'  
2018-Apr-30 22:44N 41°18' E 140°12'310.4
2018-Apr-30 22:29N 41°20' E 140°15'5 9.6
2018-Apr-30 22:00N 41°22' E 140°20'5 9.9
2018-Apr-30 21:30N 41°25' E 140°25'5 9.2
2018-Apr-30 21:01N 41°28' E 140°30'4 8.9
2018-Apr-30 20:30N 41°30' E 140°35'4 8.8
2018-Apr-30 20:00N 41°33' E 140°40'5 9.2
2018-Apr-30 19:30N 41°36' E 140°45'5 9.0
2018-Apr-30 18:59N 41°38' E 140°50'4 9.2
2018-Apr-30 18:30N 41°38' E 140°56'4 8.9
2018-Apr-30 18:00N 41°38' E 141°02'5 9.2
2018-Apr-30 17:30N 41°38' E 141°08'611.8
2018-Apr-30 17:00N 41°38' E 141°16'611.0
2018-Apr-30 16:30N 41°38' E 141°23'510.2
2018-Apr-30 15:58N 41°37' E 141°31'  
Track history (hours):
 
Tides and Currents Weather Stations Pressure Air Temp Water Temp Dewpoint Dewpoint Depression Visibility Wind Speed Wind Dir Waves Ship Positions

Marlin V

Last reported at 2018-May-03 21:53 UTC. Time now 2018-May-21 09:12 UTC.
Position N 35°02' E 129°08'.
Warning: this ship's position is 17 days out of date.

Length 199 m; draft 13 m.

Type: Cargo ship. MMSI: 357658000.

Date/timePositionNaut miles runAvg speedWind from/ knotsBaromVisibWave heightAir tempDewpointWater temp
2018-May-03 21:53N 35°02' E 129°08'3 8.2
2018-May-03 21:30N 35°05' E 129°06'2 3.3
2018-May-03 20:58N 35°06' E 129°04'0 0.0
2018-May-03 20:28N 35°06' E 129°04'0 0.0
2018-May-03 19:58N 35°06' E 129°04'0 0.0
2018-May-03 19:28N 35°06' E 129°04'0 0.0
2018-May-03 18:58N 35°06' E 129°04'0 0.0
2018-May-03 18:28N 35°06' E 129°04'0 0.0
2018-May-03 17:58N 35°06' E 129°04'0 0.0
2018-May-03 17:28N 35°06' E 129°04'0 0.0
2018-May-03 16:58N 35°06' E 129°04'0 0.0
2018-May-03 16:28N 35°06' E 129°04'0 0.0
2018-May-03 15:58N 35°06' E 129°04'0 0.0
2018-May-03 15:28N 35°06' E 129°04'0 0.0
2018-May-03 14:58N 35°06' E 129°04'0 0.0
2018-May-03 14:28N 35°06' E 129°04'0 0.0
2018-May-03 13:58N 35°06' E 129°04'0 0.0
2018-May-03 13:28N 35°06' E 129°04'0 0.0
2018-May-03 12:58N 35°06' E 129°04'0 0.0
2018-May-03 12:22N 35°06' E 129°04'0 0.0
2018-May-03 11:52N 35°06' E 129°04'0 0.0
2018-May-03 11:28N 35°06' E 129°04'0 0.1
2018-May-03 11:00N 35°06' E 129°04'2 3.4
2018-May-03 10:30N 35°05' E 129°06'4 9.0
2018-May-03 10:00N 35°05' E 129°12'  
2018-Apr-30 22:44N 41°18' E 140°12'310.4
2018-Apr-30 22:29N 41°20' E 140°15'5 9.6
2018-Apr-30 22:00N 41°22' E 140°20'5 9.9
2018-Apr-30 21:30N 41°25' E 140°25'5 9.2
2018-Apr-30 21:01N 41°28' E 140°30'4 8.9
2018-Apr-30 20:30N 41°30' E 140°35'4 8.8
2018-Apr-30 20:00N 41°33' E 140°40'5 9.2
2018-Apr-30 19:30N 41°36' E 140°45'5 9.0
2018-Apr-30 18:59N 41°38' E 140°50'4 9.2
2018-Apr-30 18:30N 41°38' E 140°56'4 8.9
2018-Apr-30 18:00N 41°38' E 141°02'5 9.2
2018-Apr-30 17:30N 41°38' E 141°08'611.8
2018-Apr-30 17:00N 41°38' E 141°16'611.0
2018-Apr-30 16:30N 41°38' E 141°23'510.2
2018-Apr-30 15:58N 41°37' E 141°31'  

Dump ship's entire track history